sensor_id;sensor_type;location;lat;lon;timestamp;temperature;humidity
2945;DHT22;1482;51.398;7.128;2023-05-10T00:01:21;14.30;99.90
2945;DHT22;1482;51.398;7.128;2023-05-10T00:03:46;14.30;57.30
2945;DHT22;1482;51.398;7.128;2023-05-10T00:06:12;14.20;1.00
2945;DHT22;1482;51.398;7.128;2023-05-10T00:08:37;14.20;29.50
2945;DHT22;1482;51.398;7.128;2023-05-10T00:11:03;14.10;99.90
2945;DHT22;1482;51.398;7.128;2023-05-10T00:13:29;14.00;99.90
2945;DHT22;1482;51.398;7.128;2023-05-10T00:15:54;14.00;1.00
2945;DHT22;1482;51.398;7.128;2023-05-10T00:18:20;14.00;99.90
2945;DHT22;1482;51.398;7.128;2023-05-10T00:20:45;14.10;65.70
2945;DHT22;1482;51.398;7.128;2023-05-10T00:23:11;14.10;1.00
2945;DHT22;1482;51.398;7.128;2023-05-10T00:25:37;14.10;1.00
2945;DHT22;1482;51.398;7.128;2023-05-10T00:28:03;14.10;1.00
2945;DHT22;1482;51.398;7.128;2023-05-10T00:30:28;14.10;1.00
2945;DHT22;1482;51.398;7.128;2023-05-10T00:32:54;14.10;99.90
2945;DHT22;1482;51.398;7.128;2023-05-10T00:35:19;14.10;99.90
2945;DHT22;1482;51.398;7.128;2023-05-10T00:37:46;14.10;99.90
2945;DHT22;1482;51.398;7.128;2023-05-10T00:40:12;14.10;99.90
2945;DHT22;1482;51.398;7.128;2023-05-10T00:42:38;14.20;1.00
2945;DHT22;1482;51.398;7.128;2023-05-10T00:45:04;14.10;99.90
2945;DHT22;1482;51.398;7.128;2023-05-10T00:47:29;14.10;1.00
2945;DHT22;1482;51.398;7.128;2023-05-10T00:49:55;14.20;1.00
2945;DHT22;1482;51.398;7.128;2023-05-10T00:52:21;14.10;99.90
2945;DHT22;1482;51.398;7.128;2023-05-10T00:54:50;14.20;1.00
2945;DHT22;1482;51.398;7.128;2023-05-10T00:57:16;14.20;1.00
2945;DHT22;1482;51.398;7.128;2023-05-10T00:59:42;14.20;99.90
2945;DHT22;1482;51.398;7.128;2023-05-10T01:02:07;14.20;1.00
2945;DHT22;1482;51.398;7.128;2023-05-10T01:04:33;14.30;99.90
2945;DHT22;1482;51.398;7.128;2023-05-10T01:06:58;14.30;99.90
2945;DHT22;1482;51.398;7.128;2023-05-10T01:09:24;14.30;1.00
2945;DHT22;1482;51.398;7.128;2023-05-10T01:11:51;14.20;1.00
2945;DHT22;1482;51.398;7.128;2023-05-10T01:14:19;14.20;15.00
2945;DHT22;1482;51.398;7.128;2023-05-10T01:16:46;14.30;99.90
2945;DHT22;1482;51.398;7.128;2023-05-10T01:19:20;14.30;1.00
2945;DHT22;1482;51.398;7.128;2023-05-10T01:22:05;14.30;1.00
2945;DHT22;1482;51.398;7.128;2023-05-10T01:28:01;14.30;20.90
2945;DHT22;1482;51.398;7.128;2023-05-10T01:30:57;14.30;99.90
2945;DHT22;1482;51.398;7.128;2023-05-10T01:33:47;14.20;1.00
2945;DHT22;1482;51.398;7.128;2023-05-10T01:36:39;14.20;99.90
2945;DHT22;1482;51.398;7.128;2023-05-10T01:41:52;14.10;1.00
2945;DHT22;1482;51.398;7.128;2023-05-10T01:44:37;14.10;1.00
2945;DHT22;1482;51.398;7.128;2023-05-10T01:47:17;14.10;1.00
2945;DHT22;1482;51.398;7.128;2023-05-10T01:49:50;14.10;99.90
2945;DHT22;1482;51.398;7.128;2023-05-10T01:52:19;14.00;99.90
2945;DHT22;1482;51.398;7.128;2023-05-10T01:55:02;14.10;99.90
2945;DHT22;1482;51.398;7.128;2023-05-10T01:57:33;14.10;99.90
2945;DHT22;1482;51.398;7.128;2023-05-10T02:00:00;14.10;1.00
2945;DHT22;1482;51.398;7.128;2023-05-10T02:02:28;14.00;1.00
2945;DHT22;1482;51.398;7.128;2023-05-10T02:04:55;14.00;99.90
2945;DHT22;1482;51.398;7.128;2023-05-10T02:07:23;14.00;22.50
2945;DHT22;1482;51.398;7.128;2023-05-10T02:09:49;14.10;1.00
2945;DHT22;1482;51.398;7.128;2023-05-10T02:12:16;14.10;1.00
2945;DHT22;1482;51.398;7.128;2023-05-10T02:14:42;14.10;99.90
2945;DHT22;1482;51.398;7.128;2023-05-10T02:17:09;14.00;99.90
2945;DHT22;1482;51.398;7.128;2023-05-10T02:19:38;14.00;99.90
2945;DHT22;1482;51.398;7.128;2023-05-10T02:22:05;14.00;99.90
2945;DHT22;1482;51.398;7.128;2023-05-10T02:24:32;13.90;99.90
2945;DHT22;1482;51.398;7.128;2023-05-10T02:26:59;14.00;99.90
2945;DHT22;1482;51.398;7.128;2023-05-10T02:29:26;13.90;99.90
2945;DHT22;1482;51.398;7.128;2023-05-10T02:31:54;13.90;99.90
2945;DHT22;1482;51.398;7.128;2023-05-10T02:34:21;13.90;99.90
2945;DHT22;1482;51.398;7.128;2023-05-10T02:36:48;13.90;99.90
2945;DHT22;1482;51.398;7.128;2023-05-10T02:39:16;13.90;99.90
2945;DHT22;1482;51.398;7.128;2023-05-10T02:41:44;13.90;1.00
2945;DHT22;1482;51.398;7.128;2023-05-10T02:44:10;13.90;1.00
2945;DHT22;1482;51.398;7.128;2023-05-10T02:46:36;13.90;1.00
2945;DHT22;1482;51.398;7.128;2023-05-10T02:49:03;13.90;1.00
2945;DHT22;1482;51.398;7.128;2023-05-10T02:51:31;13.90;1.00
2945;DHT22;1482;51.398;7.128;2023-05-10T02:56:59;13.90;1.00
2945;DHT22;1482;51.398;7.128;2023-05-10T02:59:26;13.80;1.00
2945;DHT22;1482;51.398;7.128;2023-05-10T03:01:52;13.80;43.90
2945;DHT22;1482;51.398;7.128;2023-05-10T03:04:17;13.80;99.90
2945;DHT22;1482;51.398;7.128;2023-05-10T03:06:43;13.90;99.90
2945;DHT22;1482;51.398;7.128;2023-05-10T03:09:09;13.90;58.10
2945;DHT22;1482;51.398;7.128;2023-05-10T03:17:10;13.90;1.00
2945;DHT22;1482;51.398;7.128;2023-05-10T03:19:45;13.90;1.00
2945;DHT22;1482;51.398;7.128;2023-05-10T03:22:13;13.90;1.00
2945;DHT22;1482;51.398;7.128;2023-05-10T03:24:42;13.90;1.00
2945;DHT22;1482;51.398;7.128;2023-05-10T03:27:08;13.90;1.00
2945;DHT22;1482;51.398;7.128;2023-05-10T03:29:36;13.90;1.00
2945;DHT22;1482;51.398;7.128;2023-05-10T03:32:03;13.90;1.00
2945;DHT22;1482;51.398;7.128;2023-05-10T03:34:30;13.90;1.00
2945;DHT22;1482;51.398;7.128;2023-05-10T03:36:56;13.80;12.20
2945;DHT22;1482;51.398;7.128;2023-05-10T03:39:22;13.90;25.80
2945;DHT22;1482;51.398;7.128;2023-05-10T03:41:48;13.90;3.90
2945;DHT22;1482;51.398;7.128;2023-05-10T03:44:13;13.80;5.20
2945;DHT22;1482;51.398;7.128;2023-05-10T03:46:39;13.80;1.00
2945;DHT22;1482;51.398;7.128;2023-05-10T03:49:04;13.80;79.90
2945;DHT22;1482;51.398;7.128;2023-05-10T03:51:30;13.80;58.80
2945;DHT22;1482;51.398;7.128;2023-05-10T03:53:56;13.70;99.90
2945;DHT22;1482;51.398;7.128;2023-05-10T03:56:22;13.70;99.90
2945;DHT22;1482;51.398;7.128;2023-05-10T03:58:47;13.80;99.90
2945;DHT22;1482;51.398;7.128;2023-05-10T04:01:13;13.80;99.90
2945;DHT22;1482;51.398;7.128;2023-05-10T04:03:38;13.70;99.90
2945;DHT22;1482;51.398;7.128;2023-05-10T04:06:04;13.70;1.00
2945;DHT22;1482;51.398;7.128;2023-05-10T04:08:31;13.80;1.00
2945;DHT22;1482;51.398;7.128;2023-05-10T04:11:09;13.70;99.90
2945;DHT22;1482;51.398;7.128;2023-05-10T04:13:35;13.70;99.90
2945;DHT22;1482;51.398;7.128;2023-05-10T04:16:01;13.70;99.90
2945;DHT22;1482;51.398;7.128;2023-05-10T04:18:27;13.80;1.00
2945;DHT22;1482;51.398;7.128;2023-05-10T04:20:52;13.80;1.00
2945;DHT22;1482;51.398;7.128;2023-05-10T04:23:18;13.80;1.00
2945;DHT22;1482;51.398;7.128;2023-05-10T04:25:44;13.80;1.00
2945;DHT22;1482;51.398;7.128;2023-05-10T04:28:09;13.80;1.00
2945;DHT22;1482;51.398;7.128;2023-05-10T04:30:35;13.90;1.00
2945;DHT22;1482;51.398;7.128;2023-05-10T04:33:01;13.90;1.00
2945;DHT22;1482;51.398;7.128;2023-05-10T04:35:29;13.80;99.90
2945;DHT22;1482;51.398;7.128;2023-05-10T04:37:55;13.90;1.00
2945;DHT22;1482;51.398;7.128;2023-05-10T04:40:20;13.90;1.00
2945;DHT22;1482;51.398;7.128;2023-05-10T04:42:46;13.90;1.00
2945;DHT22;1482;51.398;7.128;2023-05-10T04:45:11;13.90;1.00
2945;DHT22;1482;51.398;7.128;2023-05-10T04:47:37;13.80;99.90
2945;DHT22;1482;51.398;7.128;2023-05-10T04:50:06;13.90;99.90
2945;DHT22;1482;51.398;7.128;2023-05-10T04:52:32;13.80;99.90
2945;DHT22;1482;51.398;7.128;2023-05-10T04:54:58;13.80;1.00
2945;DHT22;1482;51.398;7.128;2023-05-10T04:57:23;13.80;99.90
2945;DHT22;1482;51.398;7.128;2023-05-10T04:59:49;13.90;99.90
2945;DHT22;1482;51.398;7.128;2023-05-10T05:02:15;13.90;1.00
2945;DHT22;1482;51.398;7.128;2023-05-10T05:04:40;13.90;99.90
2945;DHT22;1482;51.398;7.128;2023-05-10T05:07:06;13.90;99.90
2945;DHT22;1482;51.398;7.128;2023-05-10T05:09:31;13.90;99.90
2945;DHT22;1482;51.398;7.128;2023-05-10T05:11:58;13.90;99.90
2945;DHT22;1482;51.398;7.128;2023-05-10T05:14:23;14.00;99.90
2945;DHT22;1482;51.398;7.128;2023-05-10T05:16:51;14.00;1.00
2945;DHT22;1482;51.398;7.128;2023-05-10T05:19:17;14.00;1.00
2945;DHT22;1482;51.398;7.128;2023-05-10T05:21:42;14.00;1.00
2945;DHT22;1482;51.398;7.128;2023-05-10T05:24:08;14.00;99.90
2945;DHT22;1482;51.398;7.128;2023-05-10T05:26:34;14.10;99.90
2945;DHT22;1482;51.398;7.128;2023-05-10T05:28:59;14.00;99.90
2945;DHT22;1482;51.398;7.128;2023-05-10T05:31:25;14.10;1.00
2945;DHT22;1482;51.398;7.128;2023-05-10T05:33:50;14.20;99.60
2945;DHT22;1482;51.398;7.128;2023-05-10T05:36:16;14.30;1.00
2945;DHT22;1482;51.398;7.128;2023-05-10T05:38:41;14.30;99.90
2945;DHT22;1482;51.398;7.128;2023-05-10T05:41:08;14.40;6.50
2945;DHT22;1482;51.398;7.128;2023-05-10T05:43:33;14.40;1.00
2945;DHT22;1482;51.398;7.128;2023-05-10T05:45:59;14.40;99.90
2945;DHT22;1482;51.398;7.128;2023-05-10T05:48:24;14.40;99.90
2945;DHT22;1482;51.398;7.128;2023-05-10T05:50:53;14.50;99.90
2945;DHT22;1482;51.398;7.128;2023-05-10T05:53:19;14.50;28.40
2945;DHT22;1482;51.398;7.128;2023-05-10T05:55:55;14.50;1.00
2945;DHT22;1482;51.398;7.128;2023-05-10T05:58:21;14.60;1.00
2945;DHT22;1482;51.398;7.128;2023-05-10T06:00:47;14.50;99.90
2945;DHT22;1482;51.398;7.128;2023-05-10T06:03:12;14.60;1.00
2945;DHT22;1482;51.398;7.128;2023-05-10T06:05:38;14.60;1.00
2945;DHT22;1482;51.398;7.128;2023-05-10T06:08:03;14.70;46.70
2945;DHT22;1482;51.398;7.128;2023-05-10T06:10:29;14.90;1.00
2945;DHT22;1482;51.398;7.128;2023-05-10T06:12:55;15.00;99.90
2945;DHT22;1482;51.398;7.128;2023-05-10T06:15:21;15.20;99.90
2945;DHT22;1482;51.398;7.128;2023-05-10T06:17:47;15.30;99.90
2945;DHT22;1482;51.398;7.128;2023-05-10T06:20:14;15.40;1.00
2945;DHT22;1482;51.398;7.128;2023-05-10T06:22:40;15.50;1.00
2945;DHT22;1482;51.398;7.128;2023-05-10T06:25:06;15.50;1.00
2945;DHT22;1482;51.398;7.128;2023-05-10T06:27:32;15.50;1.00
2945;DHT22;1482;51.398;7.128;2023-05-10T06:29:57;15.60;1.00
2945;DHT22;1482;51.398;7.128;2023-05-10T06:32:23;15.60;1.00
2945;DHT22;1482;51.398;7.128;2023-05-10T06:34:48;15.70;1.00
2945;DHT22;1482;51.398;7.128;2023-05-10T06:37:14;15.70;1.00
2945;DHT22;1482;51.398;7.128;2023-05-10T06:39:40;16.00;1.00
2945;DHT22;1482;51.398;7.128;2023-05-10T06:42:05;16.20;99.90
2945;DHT22;1482;51.398;7.128;2023-05-10T06:44:31;16.20;99.90
2945;DHT22;1482;51.398;7.128;2023-05-10T06:46:56;16.30;99.90
2945;DHT22;1482;51.398;7.128;2023-05-10T06:49:22;16.30;99.90
2945;DHT22;1482;51.398;7.128;2023-05-10T06:51:47;16.30;99.90
2945;DHT22;1482;51.398;7.128;2023-05-10T06:54:13;16.30;99.90
2945;DHT22;1482;51.398;7.128;2023-05-10T06:56:39;16.40;99.90
2945;DHT22;1482;51.398;7.128;2023-05-10T06:59:05;16.40;99.90
2945;DHT22;1482;51.398;7.128;2023-05-10T07:01:30;16.60;99.90
2945;DHT22;1482;51.398;7.128;2023-05-10T07:03:56;16.70;99.90
2945;DHT22;1482;51.398;7.128;2023-05-10T07:06:21;16.80;99.90
2945;DHT22;1482;51.398;7.128;2023-05-10T07:08:47;17.00;99.90
2945;DHT22;1482;51.398;7.128;2023-05-10T07:11:13;17.20;99.90
2945;DHT22;1482;51.398;7.128;2023-05-10T07:13:38;17.30;99.90
2945;DHT22;1482;51.398;7.128;2023-05-10T07:16:06;17.30;99.90
2945;DHT22;1482;51.398;7.128;2023-05-10T07:18:33;17.30;99.90
2945;DHT22;1482;51.398;7.128;2023-05-10T07:20:58;17.20;99.90
2945;DHT22;1482;51.398;7.128;2023-05-10T07:23:24;17.20;99.90
2945;DHT22;1482;51.398;7.128;2023-05-10T07:25:51;17.20;99.90
2945;DHT22;1482;51.398;7.128;2023-05-10T07:28:17;17.00;99.90
2945;DHT22;1482;51.398;7.128;2023-05-10T07:30:43;17.00;99.90
2945;DHT22;1482;51.398;7.128;2023-05-10T07:33:10;16.90;99.90
2945;DHT22;1482;51.398;7.128;2023-05-10T07:35:36;17.00;99.90
2945;DHT22;1482;51.398;7.128;2023-05-10T07:38:02;17.00;99.90
2945;DHT22;1482;51.398;7.128;2023-05-10T07:40:28;17.00;99.90
2945;DHT22;1482;51.398;7.128;2023-05-10T07:42:54;17.10;99.90
2945;DHT22;1482;51.398;7.128;2023-05-10T07:45:19;17.10;99.90
2945;DHT22;1482;51.398;7.128;2023-05-10T07:47:45;16.90;99.90
2945;DHT22;1482;51.398;7.128;2023-05-10T07:50:11;16.80;99.90
2945;DHT22;1482;51.398;7.128;2023-05-10T07:52:36;16.70;99.90
2945;DHT22;1482;51.398;7.128;2023-05-10T07:55:02;16.70;99.90
2945;DHT22;1482;51.398;7.128;2023-05-10T07:57:27;16.70;99.90
2945;DHT22;1482;51.398;7.128;2023-05-10T07:59:53;16.70;99.90
2945;DHT22;1482;51.398;7.128;2023-05-10T08:02:18;16.70;99.90
2945;DHT22;1482;51.398;7.128;2023-05-10T08:04:44;16.70;99.90
2945;DHT22;1482;51.398;7.128;2023-05-10T08:07:09;16.70;99.90
2945;DHT22;1482;51.398;7.128;2023-05-10T08:09:36;16.70;99.90
2945;DHT22;1482;51.398;7.128;2023-05-10T08:12:01;16.60;99.90
2945;DHT22;1482;51.398;7.128;2023-05-10T08:14:28;16.50;99.90
2945;DHT22;1482;51.398;7.128;2023-05-10T08:16:54;16.40;99.90
2945;DHT22;1482;51.398;7.128;2023-05-10T08:19:19;16.40;99.90
2945;DHT22;1482;51.398;7.128;2023-05-10T08:21:46;16.40;99.90
2945;DHT22;1482;51.398;7.128;2023-05-10T08:24:12;16.50;99.90
2945;DHT22;1482;51.398;7.128;2023-05-10T08:26:38;16.50;99.90
2945;DHT22;1482;51.398;7.128;2023-05-10T08:29:03;16.70;99.90
2945;DHT22;1482;51.398;7.128;2023-05-10T08:31:29;16.80;99.90
2945;DHT22;1482;51.398;7.128;2023-05-10T08:33:54;16.90;99.90
2945;DHT22;1482;51.398;7.128;2023-05-10T08:36:20;16.90;99.90
2945;DHT22;1482;51.398;7.128;2023-05-10T08:38:53;16.90;99.90
2945;DHT22;1482;51.398;7.128;2023-05-10T08:41:23;17.00;99.90
2945;DHT22;1482;51.398;7.128;2023-05-10T08:43:53;17.10;99.90
2945;DHT22;1482;51.398;7.128;2023-05-10T08:46:20;17.30;99.90
2945;DHT22;1482;51.398;7.128;2023-05-10T08:48:47;17.60;99.90
2945;DHT22;1482;51.398;7.128;2023-05-10T08:51:14;18.10;99.90
2945;DHT22;1482;51.398;7.128;2023-05-10T08:53:40;18.50;99.90
2945;DHT22;1482;51.398;7.128;2023-05-10T08:56:06;18.70;67.40
2945;DHT22;1482;51.398;7.128;2023-05-10T08:58:32;18.60;49.50
2945;DHT22;1482;51.398;7.128;2023-05-10T09:00:59;18.60;36.40
2945;DHT22;1482;51.398;7.128;2023-05-10T09:03:26;18.60;37.20
2945;DHT22;1482;51.398;7.128;2023-05-10T09:05:51;18.40;43.90
2945;DHT22;1482;51.398;7.128;2023-05-10T09:08:17;18.60;43.20
2945;DHT22;1482;51.398;7.128;2023-05-10T09:10:44;18.80;46.20
2945;DHT22;1482;51.398;7.128;2023-05-10T09:13:12;19.00;27.40
2945;DHT22;1482;51.398;7.128;2023-05-10T09:15:39;19.20;28.50
2945;DHT22;1482;51.398;7.128;2023-05-10T09:18:04;19.50;24.90
2945;DHT22;1482;51.398;7.128;2023-05-10T09:20:30;19.90;14.60
2945;DHT22;1482;51.398;7.128;2023-05-10T09:22:56;20.10;5.70
2945;DHT22;1482;51.398;7.128;2023-05-10T09:25:22;20.10;1.00
2945;DHT22;1482;51.398;7.128;2023-05-10T09:27:48;20.10;1.00
2945;DHT22;1482;51.398;7.128;2023-05-10T09:30:27;20.20;2.70
2945;DHT22;1482;51.398;7.128;2023-05-10T09:32:53;20.30;1.00
2945;DHT22;1482;51.398;7.128;2023-05-10T09:35:22;20.20;1.00
2945;DHT22;1482;51.398;7.128;2023-05-10T09:37:53;20.10;1.00
2945;DHT22;1482;51.398;7.128;2023-05-10T09:40:24;20.00;1.00
2945;DHT22;1482;51.398;7.128;2023-05-10T09:43:00;19.80;1.00
2945;DHT22;1482;51.398;7.128;2023-05-10T09:45:28;19.70;1.00
2945;DHT22;1482;51.398;7.128;2023-05-10T09:47:55;19.80;1.00
2945;DHT22;1482;51.398;7.128;2023-05-10T09:50:21;19.70;1.00
2945;DHT22;1482;51.398;7.128;2023-05-10T09:55:21;19.50;1.00
2945;DHT22;1482;51.398;7.128;2023-05-10T09:57:48;19.40;1.00
2945;DHT22;1482;51.398;7.128;2023-05-10T10:00:19;19.30;1.00
2945;DHT22;1482;51.398;7.128;2023-05-10T10:02:47;19.10;1.00
2945;DHT22;1482;51.398;7.128;2023-05-10T10:05:13;18.90;1.00
2945;DHT22;1482;51.398;7.128;2023-05-10T10:07:39;18.30;1.00
2945;DHT22;1482;51.398;7.128;2023-05-10T10:10:05;18.10;2.00
2945;DHT22;1482;51.398;7.128;2023-05-10T10:12:36;17.90;7.60
2945;DHT22;1482;51.398;7.128;2023-05-10T10:15:03;17.70;16.70
2945;DHT22;1482;51.398;7.128;2023-05-10T10:17:30;17.70;14.40
2945;DHT22;1482;51.398;7.128;2023-05-10T10:19:57;17.60;19.10
2945;DHT22;1482;51.398;7.128;2023-05-10T10:22:22;17.70;22.90
2945;DHT22;1482;51.398;7.128;2023-05-10T10:24:48;17.80;16.00
2945;DHT22;1482;51.398;7.128;2023-05-10T10:27:23;18.30;20.90
2945;DHT22;1482;51.398;7.128;2023-05-10T10:32:53;19.40;8.10
2945;DHT22;1482;51.398;7.128;2023-05-10T10:35:23;19.80;1.00
2945;DHT22;1482;51.398;7.128;2023-05-10T10:37:50;20.00;1.00
2945;DHT22;1482;51.398;7.128;2023-05-10T10:40:27;20.40;1.00
2945;DHT22;1482;51.398;7.128;2023-05-10T10:42:54;20.50;1.00
2945;DHT22;1482;51.398;7.128;2023-05-10T10:45:20;20.20;1.00
2945;DHT22;1482;51.398;7.128;2023-05-10T10:47:46;20.00;1.00
2945;DHT22;1482;51.398;7.128;2023-05-10T10:50:12;20.00;1.00
2945;DHT22;1482;51.398;7.128;2023-05-10T10:52:44;20.10;1.00
2945;DHT22;1482;51.398;7.128;2023-05-10T10:55:17;20.10;1.00
2945;DHT22;1482;51.398;7.128;2023-05-10T10:57:45;20.10;1.00
2945;DHT22;1482;51.398;7.128;2023-05-10T11:00:24;20.10;1.00
2945;DHT22;1482;51.398;7.128;2023-05-10T11:02:51;20.10;1.00
2945;DHT22;1482;51.398;7.128;2023-05-10T11:05:23;20.30;1.00
2945;DHT22;1482;51.398;7.128;2023-05-10T11:10:23;20.60;1.00
2945;DHT22;1482;51.398;7.128;2023-05-10T11:13:08;20.60;1.00
2945;DHT22;1482;51.398;7.128;2023-05-10T11:15:39;20.40;1.00
2945;DHT22;1482;51.398;7.128;2023-05-10T11:21:01;20.00;1.00
2945;DHT22;1482;51.398;7.128;2023-05-10T11:26:07;19.20;1.00
2945;DHT22;1482;51.398;7.128;2023-05-10T11:28:46;19.20;1.00
2945;DHT22;1482;51.398;7.128;2023-05-10T11:31:16;19.10;1.00
2945;DHT22;1482;51.398;7.128;2023-05-10T11:33:43;19.10;1.00
2945;DHT22;1482;51.398;7.128;2023-05-10T11:36:20;19.20;1.00
2945;DHT22;1482;51.398;7.128;2023-05-10T11:38:47;19.20;1.00
2945;DHT22;1482;51.398;7.128;2023-05-10T11:41:13;19.10;1.00
2945;DHT22;1482;51.398;7.128;2023-05-10T11:43:39;19.20;1.00
2945;DHT22;1482;51.398;7.128;2023-05-10T11:46:10;19.50;1.00
2945;DHT22;1482;51.398;7.128;2023-05-10T11:48:40;19.90;1.00
2945;DHT22;1482;51.398;7.128;2023-05-10T11:51:10;20.10;1.00
2945;DHT22;1482;51.398;7.128;2023-05-10T11:53:36;20.20;1.00
2945;DHT22;1482;51.398;7.128;2023-05-10T11:56:11;20.20;1.00
2945;DHT22;1482;51.398;7.128;2023-05-10T11:58:38;20.30;1.00
2945;DHT22;1482;51.398;7.128;2023-05-10T12:01:05;20.30;1.00
2945;DHT22;1482;51.398;7.128;2023-05-10T12:03:32;20.20;1.00
2945;DHT22;1482;51.398;7.128;2023-05-10T12:05:58;20.10;1.00
2945;DHT22;1482;51.398;7.128;2023-05-10T12:08:25;19.90;1.00
2945;DHT22;1482;51.398;7.128;2023-05-10T12:10:51;19.80;1.00
2945;DHT22;1482;51.398;7.128;2023-05-10T12:13:18;19.90;1.00
2945;DHT22;1482;51.398;7.128;2023-05-10T12:15:44;19.90;1.00
2945;DHT22;1482;51.398;7.128;2023-05-10T12:18:10;20.00;1.00
2945;DHT22;1482;51.398;7.128;2023-05-10T12:20:37;20.20;1.00
2945;DHT22;1482;51.398;7.128;2023-05-10T12:23:03;20.20;1.00
2945;DHT22;1482;51.398;7.128;2023-05-10T12:25:33;20.30;1.00
2945;DHT22;1482;51.398;7.128;2023-05-10T12:27:59;20.30;1.00
2945;DHT22;1482;51.398;7.128;2023-05-10T12:30:27;20.10;1.00
2945;DHT22;1482;51.398;7.128;2023-05-10T12:32:58;20.20;1.00
2945;DHT22;1482;51.398;7.128;2023-05-10T12:35:24;20.20;1.00
2945;DHT22;1482;51.398;7.128;2023-05-10T12:37:51;20.30;1.00
2945;DHT22;1482;51.398;7.128;2023-05-10T12:40:16;20.50;1.00
2945;DHT22;1482;51.398;7.128;2023-05-10T12:42:42;20.60;1.00
2945;DHT22;1482;51.398;7.128;2023-05-10T12:45:10;20.70;1.00
2945;DHT22;1482;51.398;7.128;2023-05-10T12:47:37;20.70;1.00
2945;DHT22;1482;51.398;7.128;2023-05-10T12:50:04;20.70;1.00
2945;DHT22;1482;51.398;7.128;2023-05-10T12:52:30;20.70;1.00
2945;DHT22;1482;51.398;7.128;2023-05-10T12:54:57;20.70;1.00
2945;DHT22;1482;51.398;7.128;2023-05-10T12:57:23;20.90;1.00
2945;DHT22;1482;51.398;7.128;2023-05-10T12:59:49;21.00;1.00
2945;DHT22;1482;51.398;7.128;2023-05-10T13:02:15;21.10;1.00
2945;DHT22;1482;51.398;7.128;2023-05-10T13:04:43;21.30;1.00
2945;DHT22;1482;51.398;7.128;2023-05-10T13:07:09;21.10;1.00
2945;DHT22;1482;51.398;7.128;2023-05-10T13:09:36;21.30;1.00
2945;DHT22;1482;51.398;7.128;2023-05-10T13:12:02;21.40;1.00
2945;DHT22;1482;51.398;7.128;2023-05-10T13:14:27;21.40;1.00
2945;DHT22;1482;51.398;7.128;2023-05-10T13:16:53;21.70;1.00
2945;DHT22;1482;51.398;7.128;2023-05-10T13:19:19;21.60;1.00
2945;DHT22;1482;51.398;7.128;2023-05-10T13:21:44;21.70;1.00
2945;DHT22;1482;51.398;7.128;2023-05-10T13:24:11;21.90;1.00
2945;DHT22;1482;51.398;7.128;2023-05-10T13:26:41;22.00;1.00
2945;DHT22;1482;51.398;7.128;2023-05-10T13:29:07;21.90;1.00
2945;DHT22;1482;51.398;7.128;2023-05-10T13:31:34;21.90;1.00
2945;DHT22;1482;51.398;7.128;2023-05-10T13:34:00;21.90;1.00
2945;DHT22;1482;51.398;7.128;2023-05-10T13:36:25;22.00;1.00
2945;DHT22;1482;51.398;7.128;2023-05-10T13:38:51;21.90;1.00
2945;DHT22;1482;51.398;7.128;2023-05-10T13:41:17;21.80;1.00
2945;DHT22;1482;51.398;7.128;2023-05-10T13:43:42;21.60;1.00
2945;DHT22;1482;51.398;7.128;2023-05-10T13:46:08;21.60;1.00
2945;DHT22;1482;51.398;7.128;2023-05-10T13:48:34;21.60;1.00
2945;DHT22;1482;51.398;7.128;2023-05-10T13:50:59;21.70;1.00
2945;DHT22;1482;51.398;7.128;2023-05-10T13:53:25;21.60;1.00
2945;DHT22;1482;51.398;7.128;2023-05-10T13:55:50;21.80;1.00
2945;DHT22;1482;51.398;7.128;2023-05-10T13:58:16;21.80;1.00
2945;DHT22;1482;51.398;7.128;2023-05-10T14:00:41;22.00;1.00
2945;DHT22;1482;51.398;7.128;2023-05-10T14:03:07;22.00;1.00
2945;DHT22;1482;51.398;7.128;2023-05-10T14:05:34;22.20;1.00
2945;DHT22;1482;51.398;7.128;2023-05-10T14:07:59;22.30;1.00
2945;DHT22;1482;51.398;7.128;2023-05-10T14:10:25;22.30;1.00
2945;DHT22;1482;51.398;7.128;2023-05-10T14:12:51;22.40;1.00
2945;DHT22;1482;51.398;7.128;2023-05-10T14:15:16;22.30;1.00
2945;DHT22;1482;51.398;7.128;2023-05-10T14:17:42;22.20;1.00
2945;DHT22;1482;51.398;7.128;2023-05-10T14:20:08;22.00;1.00
2945;DHT22;1482;51.398;7.128;2023-05-10T14:22:34;21.80;1.00
2945;DHT22;1482;51.398;7.128;2023-05-10T14:25:00;21.60;1.00
2945;DHT22;1482;51.398;7.128;2023-05-10T14:27:25;21.50;1.00
2945;DHT22;1482;51.398;7.128;2023-05-10T14:29:51;21.40;1.00
2945;DHT22;1482;51.398;7.128;2023-05-10T14:32:17;21.30;1.00
2945;DHT22;1482;51.398;7.128;2023-05-10T14:34:42;21.20;1.00
2945;DHT22;1482;51.398;7.128;2023-05-10T14:37:10;21.00;1.00
2945;DHT22;1482;51.398;7.128;2023-05-10T14:39:36;20.80;1.00
2945;DHT22;1482;51.398;7.128;2023-05-10T14:42:03;20.80;1.00
2945;DHT22;1482;51.398;7.128;2023-05-10T14:44:28;20.70;1.00
2945;DHT22;1482;51.398;7.128;2023-05-10T14:46:54;20.60;1.00
2945;DHT22;1482;51.398;7.128;2023-05-10T14:49:20;20.50;1.00
2945;DHT22;1482;51.398;7.128;2023-05-10T14:51:48;20.50;1.00
2945;DHT22;1482;51.398;7.128;2023-05-10T14:54:14;20.40;1.00
2945;DHT22;1482;51.398;7.128;2023-05-10T14:56:39;20.40;1.00
2945;DHT22;1482;51.398;7.128;2023-05-10T14:59:07;20.40;1.00
2945;DHT22;1482;51.398;7.128;2023-05-10T15:01:32;20.40;1.00
2945;DHT22;1482;51.398;7.128;2023-05-10T15:03:59;20.40;1.00
2945;DHT22;1482;51.398;7.128;2023-05-10T15:06:31;20.50;1.00
2945;DHT22;1482;51.398;7.128;2023-05-10T15:08:57;20.60;1.00
2945;DHT22;1482;51.398;7.128;2023-05-10T15:11:22;20.80;1.00
2945;DHT22;1482;51.398;7.128;2023-05-10T15:13:48;20.90;1.00
2945;DHT22;1482;51.398;7.128;2023-05-10T15:16:13;20.90;1.00
2945;DHT22;1482;51.398;7.128;2023-05-10T15:18:39;21.10;1.00
2945;DHT22;1482;51.398;7.128;2023-05-10T15:21:04;21.10;1.00
2945;DHT22;1482;51.398;7.128;2023-05-10T15:23:30;21.20;1.00
2945;DHT22;1482;51.398;7.128;2023-05-10T15:25:55;21.20;1.00
2945;DHT22;1482;51.398;7.128;2023-05-10T15:28:21;21.20;1.00
2945;DHT22;1482;51.398;7.128;2023-05-10T15:30:47;21.30;1.00
2945;DHT22;1482;51.398;7.128;2023-05-10T15:33:13;21.40;1.00
2945;DHT22;1482;51.398;7.128;2023-05-10T15:35:39;21.50;1.00
2945;DHT22;1482;51.398;7.128;2023-05-10T15:38:05;21.50;1.00
2945;DHT22;1482;51.398;7.128;2023-05-10T15:40:31;21.50;1.00
2945;DHT22;1482;51.398;7.128;2023-05-10T15:42:56;21.60;1.00
2945;DHT22;1482;51.398;7.128;2023-05-10T15:45:22;21.70;1.00
2945;DHT22;1482;51.398;7.128;2023-05-10T15:47:47;21.80;1.00
2945;DHT22;1482;51.398;7.128;2023-05-10T15:50:14;21.80;1.00
2945;DHT22;1482;51.398;7.128;2023-05-10T15:52:41;21.80;1.00
2945;DHT22;1482;51.398;7.128;2023-05-10T15:55:07;21.90;1.00
2945;DHT22;1482;51.398;7.128;2023-05-10T15:57:40;22.10;1.00
2945;DHT22;1482;51.398;7.128;2023-05-10T16:00:08;22.20;1.00
2945;DHT22;1482;51.398;7.128;2023-05-10T16:02:34;22.20;1.00
2945;DHT22;1482;51.398;7.128;2023-05-10T16:05:00;22.20;1.00
2945;DHT22;1482;51.398;7.128;2023-05-10T16:07:25;22.10;1.00
2945;DHT22;1482;51.398;7.128;2023-05-10T16:09:51;22.00;1.00
2945;DHT22;1482;51.398;7.128;2023-05-10T16:12:17;21.70;1.00
2945;DHT22;1482;51.398;7.128;2023-05-10T16:14:42;21.70;1.00
2945;DHT22;1482;51.398;7.128;2023-05-10T16:17:08;21.50;1.00
2945;DHT22;1482;51.398;7.128;2023-05-10T16:19:34;21.30;1.00
2945;DHT22;1482;51.398;7.128;2023-05-10T16:21:59;21.20;1.00
2945;DHT22;1482;51.398;7.128;2023-05-10T16:24:25;21.10;1.00
2945;DHT22;1482;51.398;7.128;2023-05-10T16:26:50;21.00;1.00
2945;DHT22;1482;51.398;7.128;2023-05-10T16:29:16;20.90;1.00
2945;DHT22;1482;51.398;7.128;2023-05-10T16:31:42;20.80;1.00
2945;DHT22;1482;51.398;7.128;2023-05-10T16:34:07;20.70;1.00
2945;DHT22;1482;51.398;7.128;2023-05-10T16:36:33;20.60;1.00
2945;DHT22;1482;51.398;7.128;2023-05-10T16:38:58;20.40;1.00